Thursday, November 23, 2017, 1:25 PM EST
Back to Local

KFRG, Farmingdale Republic Airport

Location: Farmingdale, NY, United States Lat: 40.733
Local Time: 1:25 PM EST (18:25 GMT) Lon: -73.417
Time Zone: US/Eastern Elev: 82 ft

Show me the last for .
Show Decoded

2017-11-23 12:53 METAR KFRG 231753Z 36006KT 10SM CLR 05/M06 A3005 RMK AO2 SLP176 T00501061 10056
                 21017 56020 =
2017-11-23 11:53 METAR KFRG 231653Z 29008KT 10SM CLR 04/M06 A3006 RMK AO2 SLP180 T00391061 =
2017-11-23 10:53 METAR KFRG 231553Z 32008KT 10SM CLR 04/M06 A3009 RMK AO2 SLP189 T00391061 =
2017-11-23 09:53 METAR KFRG 231453Z 33009KT 10SM CLR 03/M06 A3011 RMK AO2 SLP196 T00281061 50002
                 =
2017-11-23 08:53 METAR KFRG 231353Z 34009KT 10SM CLR 02/M06 A3012 RMK AO2 SLP199 T00221061 =
2017-11-23 07:53 METAR KFRG 231253Z 00000KT 10SM CLR 00/M06 A3011 RMK AO2 SLP197 T00001056 =
2017-11-23 06:53 METAR KFRG 231153Z 23004KT 10SM CLR M02/M06 A3010 RMK AO2 SLP194 70026 T10171061
                 10017 21017 53012 =
2017-11-23 05:53 METAR KFRG 231053Z AUTO 32003KT 10SM CLR M01/M06 A3008 RMK AO2 SLP185 T10061061
                 =
2017-11-23 04:53 METAR KFRG 230953Z AUTO 32005KT 10SM CLR 00/M06 A3007 RMK AO2 SLP184 T00001061 =
2017-11-23 03:53 METAR KFRG 230853Z AUTO 31005KT 10SM CLR 00/M06 A3007 RMK AO2 SLP183 T00001061
                 50003 =
2017-11-23 02:53 METAR KFRG 230753Z AUTO 32006KT 10SM CLR 01/M06 A3007 RMK AO2 SLP183 T00061061 =
2017-11-23 01:53 METAR KFRG 230653Z AUTO 30007KT 10SM CLR 01/M06 A3007 RMK AO2 SLP184 T00061056 =
2017-11-23 00:53 METAR KFRG 230553Z AUTO 30006KT 10SM CLR 02/M05 A3006 RMK AO2 SLP179 T00171050
                 10056 20017 50007 =
2017-11-22 23:53 METAR KFRG 230453Z AUTO 32006KT 10SM CLR 02/M05 A3006 RMK AO2 SLP181 T00221050
                 401280022 =
2017-11-22 22:53 METAR KFRG 230353Z AUTO 31006KT 10SM CLR 03/M04 A3006 RMK AO2 SLP178 T00281044 =
2017-11-22 21:53 METAR KFRG 230253Z AUTO 32009KT 10SM CLR 03/M04 A3004 RMK AO2 SLP172 T00331039
                 51019 =
2017-11-22 20:53 METAR KFRG 230153Z 32006G15KT 10SM CLR 04/M04 A3003 RMK AO2 SLP170 T00391039 =
2017-11-22 19:53 METAR KFRG 230053Z 32010G19KT 10SM CLR 04/M03 A3000 RMK AO2 SLP160 T00441033 =
2017-11-22 18:53 METAR KFRG 222353Z 33011G21KT 10SM CLR 06/M03 A2998 RMK AO2 SLP153 60000
                 T00561028 10117 20056 52025 =
2017-11-22 17:53 METAR KFRG 222253Z 32016G26KT 10SM CLR 07/M02 A2996 RMK AO2 PK WND 34026/2252
                 SLP145 T00671017 =
2017-11-22 16:53 METAR KFRG 222153Z 34010G18KT 10SM OVC037 08/02 A2993 RMK AO2 SLP136 T00830017 =
2017-11-22 15:53 METAR KFRG 222053Z 35010G20KT 10SM SCT037 BKN050 08/02 A2991 RMK AO2 SLP128
                 60000 T00830022 53018 =
2017-11-22 14:53 METAR KFRG 221953Z 36014G24KT 10SM FEW026 BKN032 OVC040 09/05 A2987 RMK AO2
                 SLP117 T00940050 =
2017-11-22 13:53 METAR KFRG 221853Z 32014G21KT 10SM FEW025 SCT110 11/06 A2986 RMK AO2 RAE11
                 SLP111 P0000 T01110056 =

Support USWX by starting your Amazon purchase here.